Terminal Aerodrome Forecast
Issued by NWS Twin Cities, MN

Home | Current Version | Previous Version | Text Only | Print | Product List | Glossary On
Versions: 1 2 3 4 5 6 7 8 9 10 11 12 13 14 15 16 17 18 19 20 21 22 23 24 25 26 27 28
000
FTUS43 KMPX 201100
TAFMSP
TAF
KMSP 201120Z 2012/2118 VRB02KT 6SM BR FEW006
      TEMPO 2012/2013 4SM BR SCT006
     FM201400 14008KT P6SM BKN250
     FM210500 13007KT P6SM VCSH SCT015 BKN070
      TEMPO 2105/2108 3SM TSRA SCT008 OVC050CB
     FM211100 12009KT 6SM BR SCT015 BKN035 OVC100=

USA.gov is the U.S. government's official web portal to all federal, state and local government web resources and services.